sensor_id;sensor_type;location;lat;lon;timestamp;P1;durP1;ratioP1;P2;durP2;ratioP2
18296;SDS011;18066;52.106;5.534;2022-12-07T00:01:48;4.90;;;2.80;;
18296;SDS011;18066;52.106;5.534;2022-12-07T00:04:16;7.33;;;3.27;;
18296;SDS011;18066;52.106;5.534;2022-12-07T00:06:46;6.30;;;2.93;;
18296;SDS011;18066;52.106;5.534;2022-12-07T00:09:16;6.10;;;3.47;;
18296;SDS011;18066;52.106;5.534;2022-12-07T00:11:45;5.73;;;3.20;;
18296;SDS011;18066;52.106;5.534;2022-12-07T00:14:15;8.97;;;3.60;;
18296;SDS011;18066;52.106;5.534;2022-12-07T00:16:42;8.00;;;3.53;;
18296;SDS011;18066;52.106;5.534;2022-12-07T00:19:10;5.73;;;3.50;;
18296;SDS011;18066;52.106;5.534;2022-12-07T00:21:38;7.07;;;3.90;;
18296;SDS011;18066;52.106;5.534;2022-12-07T00:24:05;12.20;;;3.87;;
18296;SDS011;18066;52.106;5.534;2022-12-07T00:26:33;11.43;;;3.87;;
18296;SDS011;18066;52.106;5.534;2022-12-07T00:29:04;6.60;;;3.50;;
18296;SDS011;18066;52.106;5.534;2022-12-07T00:31:33;9.37;;;3.80;;
18296;SDS011;18066;52.106;5.534;2022-12-07T00:34:03;6.63;;;3.40;;
18296;SDS011;18066;52.106;5.534;2022-12-07T00:36:31;7.90;;;3.17;;
18296;SDS011;18066;52.106;5.534;2022-12-07T00:38:58;6.10;;;3.90;;
18296;SDS011;18066;52.106;5.534;2022-12-07T00:41:26;5.17;;;3.23;;
18296;SDS011;18066;52.106;5.534;2022-12-07T00:43:53;6.20;;;3.43;;
18296;SDS011;18066;52.106;5.534;2022-12-07T00:46:22;6.50;;;3.43;;
18296;SDS011;18066;52.106;5.534;2022-12-07T00:48:50;9.90;;;4.57;;
18296;SDS011;18066;52.106;5.534;2022-12-07T00:51:19;7.40;;;3.67;;
18296;SDS011;18066;52.106;5.534;2022-12-07T00:53:47;7.83;;;4.13;;
18296;SDS011;18066;52.106;5.534;2022-12-07T00:56:15;5.87;;;3.17;;
18296;SDS011;18066;52.106;5.534;2022-12-07T00:58:42;8.13;;;3.70;;
18296;SDS011;18066;52.106;5.534;2022-12-07T01:01:09;10.07;;;3.97;;
18296;SDS011;18066;52.106;5.534;2022-12-07T01:03:38;11.50;;;4.03;;
18296;SDS011;18066;52.106;5.534;2022-12-07T01:06:05;6.23;;;3.67;;
18296;SDS011;18066;52.106;5.534;2022-12-07T01:08:33;8.20;;;3.80;;
18296;SDS011;18066;52.106;5.534;2022-12-07T01:11:01;9.20;;;3.87;;
18296;SDS011;18066;52.106;5.534;2022-12-07T01:13:30;6.83;;;3.30;;
18296;SDS011;18066;52.106;5.534;2022-12-07T01:15:57;8.97;;;4.07;;
18296;SDS011;18066;52.106;5.534;2022-12-07T01:18:26;6.00;;;3.70;;
18296;SDS011;18066;52.106;5.534;2022-12-07T01:21:01;10.10;;;3.23;;
18296;SDS011;18066;52.106;5.534;2022-12-07T01:23:30;7.53;;;3.53;;
18296;SDS011;18066;52.106;5.534;2022-12-07T01:25:58;8.03;;;3.77;;
18296;SDS011;18066;52.106;5.534;2022-12-07T01:28:26;6.07;;;3.23;;
18296;SDS011;18066;52.106;5.534;2022-12-07T01:31:00;10.67;;;3.50;;
18296;SDS011;18066;52.106;5.534;2022-12-07T01:33:28;9.07;;;3.30;;
18296;SDS011;18066;52.106;5.534;2022-12-07T01:36:01;5.90;;;2.90;;
18296;SDS011;18066;52.106;5.534;2022-12-07T01:38:29;8.17;;;3.27;;
18296;SDS011;18066;52.106;5.534;2022-12-07T01:40:56;10.50;;;2.83;;
18296;SDS011;18066;52.106;5.534;2022-12-07T01:43:24;9.40;;;2.90;;
18296;SDS011;18066;52.106;5.534;2022-12-07T01:45:54;5.87;;;2.97;;
18296;SDS011;18066;52.106;5.534;2022-12-07T01:48:22;7.23;;;2.30;;
18296;SDS011;18066;52.106;5.534;2022-12-07T01:50:52;4.80;;;2.63;;
18296;SDS011;18066;52.106;5.534;2022-12-07T01:53:24;6.97;;;2.77;;
18296;SDS011;18066;52.106;5.534;2022-12-07T01:55:54;5.53;;;2.73;;
18296;SDS011;18066;52.106;5.534;2022-12-07T01:58:22;5.27;;;2.57;;
18296;SDS011;18066;52.106;5.534;2022-12-07T02:00:50;4.30;;;2.40;;
18296;SDS011;18066;52.106;5.534;2022-12-07T02:03:18;3.90;;;2.23;;
18296;SDS011;18066;52.106;5.534;2022-12-07T02:05:48;5.33;;;2.10;;
18296;SDS011;18066;52.106;5.534;2022-12-07T02:08:16;4.30;;;2.60;;
18296;SDS011;18066;52.106;5.534;2022-12-07T02:10:45;9.07;;;2.87;;
18296;SDS011;18066;52.106;5.534;2022-12-07T02:13:12;6.57;;;2.60;;
18296;SDS011;18066;52.106;5.534;2022-12-07T02:15:45;6.47;;;2.70;;
18296;SDS011;18066;52.106;5.534;2022-12-07T02:18:23;6.97;;;2.37;;
18296;SDS011;18066;52.106;5.534;2022-12-07T02:20:58;5.37;;;2.50;;
18296;SDS011;18066;52.106;5.534;2022-12-07T02:26:50;5.63;;;2.03;;
18296;SDS011;18066;52.106;5.534;2022-12-07T02:29:28;6.20;;;1.93;;
18296;SDS011;18066;52.106;5.534;2022-12-07T02:32:02;4.70;;;2.20;;
18296;SDS011;18066;52.106;5.534;2022-12-07T02:34:37;6.47;;;2.03;;
18296;SDS011;18066;52.106;5.534;2022-12-07T02:37:12;3.93;;;1.67;;
18296;SDS011;18066;52.106;5.534;2022-12-07T02:39:46;6.37;;;2.13;;
18296;SDS011;18066;52.106;5.534;2022-12-07T02:42:20;3.43;;;1.50;;
18296;SDS011;18066;52.106;5.534;2022-12-07T02:44:52;6.70;;;1.90;;
18296;SDS011;18066;52.106;5.534;2022-12-07T02:47:19;3.73;;;1.73;;
18296;SDS011;18066;52.106;5.534;2022-12-07T02:49:49;6.17;;;1.73;;
18296;SDS011;18066;52.106;5.534;2022-12-07T02:52:17;6.30;;;2.13;;
18296;SDS011;18066;52.106;5.534;2022-12-07T02:54:44;10.03;;;1.50;;
18296;SDS011;18066;52.106;5.534;2022-12-07T03:00:04;7.03;;;1.40;;
18296;SDS011;18066;52.106;5.534;2022-12-07T03:02:36;4.57;;;1.93;;
18296;SDS011;18066;52.106;5.534;2022-12-07T03:05:18;4.27;;;1.47;;
18296;SDS011;18066;52.106;5.534;2022-12-07T03:07:59;5.13;;;1.47;;
18296;SDS011;18066;52.106;5.534;2022-12-07T03:10:33;5.73;;;2.07;;
18296;SDS011;18066;52.106;5.534;2022-12-07T03:13:07;7.47;;;2.30;;
18296;SDS011;18066;52.106;5.534;2022-12-07T03:15:41;7.00;;;1.93;;
18296;SDS011;18066;52.106;5.534;2022-12-07T03:18:13;3.87;;;1.80;;
18296;SDS011;18066;52.106;5.534;2022-12-07T03:20:42;5.80;;;2.03;;
18296;SDS011;18066;52.106;5.534;2022-12-07T03:23:12;6.10;;;1.67;;
18296;SDS011;18066;52.106;5.534;2022-12-07T03:25:40;9.03;;;1.97;;
18296;SDS011;18066;52.106;5.534;2022-12-07T03:28:11;7.00;;;1.70;;
18296;SDS011;18066;52.106;5.534;2022-12-07T03:30:44;6.43;;;2.10;;
18296;SDS011;18066;52.106;5.534;2022-12-07T03:33:15;5.83;;;1.87;;
18296;SDS011;18066;52.106;5.534;2022-12-07T03:35:47;6.43;;;1.40;;
18296;SDS011;18066;52.106;5.534;2022-12-07T03:38:18;7.93;;;1.77;;
18296;SDS011;18066;52.106;5.534;2022-12-07T03:40:50;7.23;;;2.10;;
18296;SDS011;18066;52.106;5.534;2022-12-07T03:43:23;6.20;;;1.73;;
18296;SDS011;18066;52.106;5.534;2022-12-07T03:45:53;4.40;;;2.03;;
18296;SDS011;18066;52.106;5.534;2022-12-07T03:48:32;3.87;;;1.57;;
18296;SDS011;18066;52.106;5.534;2022-12-07T03:51:05;6.10;;;1.97;;
18296;SDS011;18066;52.106;5.534;2022-12-07T03:53:37;11.20;;;2.40;;
18296;SDS011;18066;52.106;5.534;2022-12-07T03:56:09;11.70;;;1.70;;
18296;SDS011;18066;52.106;5.534;2022-12-07T03:58:37;5.10;;;1.80;;
18296;SDS011;18066;52.106;5.534;2022-12-07T04:01:06;9.37;;;1.57;;
18296;SDS011;18066;52.106;5.534;2022-12-07T04:03:33;5.57;;;1.90;;
18296;SDS011;18066;52.106;5.534;2022-12-07T04:06:00;4.80;;;1.40;;
18296;SDS011;18066;52.106;5.534;2022-12-07T04:08:27;7.20;;;1.80;;
18296;SDS011;18066;52.106;5.534;2022-12-07T04:10:54;4.43;;;1.43;;
18296;SDS011;18066;52.106;5.534;2022-12-07T04:13:20;7.17;;;1.30;;
18296;SDS011;18066;52.106;5.534;2022-12-07T04:15:47;6.27;;;1.73;;
18296;SDS011;18066;52.106;5.534;2022-12-07T04:18:15;5.97;;;1.20;;
18296;SDS011;18066;52.106;5.534;2022-12-07T04:20:42;9.20;;;1.97;;
18296;SDS011;18066;52.106;5.534;2022-12-07T04:23:09;4.13;;;1.53;;
18296;SDS011;18066;52.106;5.534;2022-12-07T04:25:36;4.63;;;1.60;;
18296;SDS011;18066;52.106;5.534;2022-12-07T04:28:02;8.43;;;1.93;;
18296;SDS011;18066;52.106;5.534;2022-12-07T04:30:29;6.13;;;1.70;;
18296;SDS011;18066;52.106;5.534;2022-12-07T04:32:56;3.07;;;1.20;;
18296;SDS011;18066;52.106;5.534;2022-12-07T04:35:24;3.63;;;1.33;;
18296;SDS011;18066;52.106;5.534;2022-12-07T04:37:51;5.00;;;1.50;;
18296;SDS011;18066;52.106;5.534;2022-12-07T04:40:18;10.00;;;1.67;;
18296;SDS011;18066;52.106;5.534;2022-12-07T04:42:45;10.27;;;1.77;;
18296;SDS011;18066;52.106;5.534;2022-12-07T04:45:11;6.37;;;1.40;;
18296;SDS011;18066;52.106;5.534;2022-12-07T04:47:38;8.00;;;1.30;;
18296;SDS011;18066;52.106;5.534;2022-12-07T04:50:05;3.80;;;1.40;;
18296;SDS011;18066;52.106;5.534;2022-12-07T04:52:34;3.30;;;1.10;;
18296;SDS011;18066;52.106;5.534;2022-12-07T04:55:01;6.80;;;1.40;;
18296;SDS011;18066;52.106;5.534;2022-12-07T04:57:27;8.17;;;1.60;;
18296;SDS011;18066;52.106;5.534;2022-12-07T04:59:54;7.40;;;2.07;;
18296;SDS011;18066;52.106;5.534;2022-12-07T05:02:21;3.77;;;1.07;;
18296;SDS011;18066;52.106;5.534;2022-12-07T05:04:48;1.93;;;1.10;;
18296;SDS011;18066;52.106;5.534;2022-12-07T05:07:14;9.40;;;1.67;;
18296;SDS011;18066;52.106;5.534;2022-12-07T05:09:42;3.00;;;1.57;;
18296;SDS011;18066;52.106;5.534;2022-12-07T05:12:09;3.53;;;1.30;;
18296;SDS011;18066;52.106;5.534;2022-12-07T05:14:36;5.43;;;1.33;;
18296;SDS011;18066;52.106;5.534;2022-12-07T05:17:03;7.40;;;1.53;;
18296;SDS011;18066;52.106;5.534;2022-12-07T05:19:30;4.63;;;1.10;;
18296;SDS011;18066;52.106;5.534;2022-12-07T05:21:56;3.33;;;0.90;;
18296;SDS011;18066;52.106;5.534;2022-12-07T05:24:23;6.87;;;1.10;;
18296;SDS011;18066;52.106;5.534;2022-12-07T05:26:51;9.37;;;1.13;;
18296;SDS011;18066;52.106;5.534;2022-12-07T05:29:18;7.13;;;1.30;;
18296;SDS011;18066;52.106;5.534;2022-12-07T05:31:45;9.63;;;1.43;;
18296;SDS011;18066;52.106;5.534;2022-12-07T05:34:12;4.00;;;1.00;;
18296;SDS011;18066;52.106;5.534;2022-12-07T05:36:39;3.90;;;1.00;;
18296;SDS011;18066;52.106;5.534;2022-12-07T05:39:06;5.80;;;1.60;;
18296;SDS011;18066;52.106;5.534;2022-12-07T05:41:33;4.13;;;1.60;;
18296;SDS011;18066;52.106;5.534;2022-12-07T05:44:18;5.43;;;1.20;;
18296;SDS011;18066;52.106;5.534;2022-12-07T05:46:45;3.60;;;1.03;;
18296;SDS011;18066;52.106;5.534;2022-12-07T05:49:12;6.97;;;2.03;;
18296;SDS011;18066;52.106;5.534;2022-12-07T05:51:39;4.00;;;1.40;;
18296;SDS011;18066;52.106;5.534;2022-12-07T05:54:06;2.13;;;1.00;;
18296;SDS011;18066;52.106;5.534;2022-12-07T05:56:33;4.37;;;1.47;;
18296;SDS011;18066;52.106;5.534;2022-12-07T05:59:00;9.03;;;1.27;;
18296;SDS011;18066;52.106;5.534;2022-12-07T06:01:46;10.67;;;1.00;;
18296;SDS011;18066;52.106;5.534;2022-12-07T06:04:13;6.20;;;1.30;;
18296;SDS011;18066;52.106;5.534;2022-12-07T06:06:39;3.90;;;1.20;;
18296;SDS011;18066;52.106;5.534;2022-12-07T06:09:06;4.67;;;1.60;;
18296;SDS011;18066;52.106;5.534;2022-12-07T06:11:33;4.23;;;1.33;;
18296;SDS011;18066;52.106;5.534;2022-12-07T06:14:17;2.93;;;0.90;;
18296;SDS011;18066;52.106;5.534;2022-12-07T06:16:45;5.33;;;0.83;;
18296;SDS011;18066;52.106;5.534;2022-12-07T06:19:12;4.90;;;1.43;;
18296;SDS011;18066;52.106;5.534;2022-12-07T06:21:39;4.73;;;0.90;;
18296;SDS011;18066;52.106;5.534;2022-12-07T06:24:06;5.73;;;1.13;;
18296;SDS011;18066;52.106;5.534;2022-12-07T06:26:33;4.67;;;1.07;;
18296;SDS011;18066;52.106;5.534;2022-12-07T06:29:00;7.10;;;0.87;;
18296;SDS011;18066;52.106;5.534;2022-12-07T06:31:27;7.03;;;1.10;;
18296;SDS011;18066;52.106;5.534;2022-12-07T06:33:58;3.83;;;1.17;;
18296;SDS011;18066;52.106;5.534;2022-12-07T06:36:25;6.90;;;1.20;;
18296;SDS011;18066;52.106;5.534;2022-12-07T06:38:52;5.83;;;1.20;;
18296;SDS011;18066;52.106;5.534;2022-12-07T06:41:18;8.33;;;1.07;;
18296;SDS011;18066;52.106;5.534;2022-12-07T06:43:45;6.20;;;1.07;;
18296;SDS011;18066;52.106;5.534;2022-12-07T06:46:12;8.90;;;1.13;;
18296;SDS011;18066;52.106;5.534;2022-12-07T06:48:39;9.53;;;1.23;;
18296;SDS011;18066;52.106;5.534;2022-12-07T06:51:07;4.40;;;1.37;;
18296;SDS011;18066;52.106;5.534;2022-12-07T06:53:34;5.83;;;1.10;;
18296;SDS011;18066;52.106;5.534;2022-12-07T06:56:01;7.37;;;1.10;;
18296;SDS011;18066;52.106;5.534;2022-12-07T06:58:28;9.17;;;1.53;;
18296;SDS011;18066;52.106;5.534;2022-12-07T07:00:55;3.87;;;1.00;;
18296;SDS011;18066;52.106;5.534;2022-12-07T07:03:21;2.87;;;1.40;;
18296;SDS011;18066;52.106;5.534;2022-12-07T07:05:48;6.50;;;1.30;;
18296;SDS011;18066;52.106;5.534;2022-12-07T07:08:16;4.93;;;1.30;;
18296;SDS011;18066;52.106;5.534;2022-12-07T07:10:43;10.27;;;1.20;;
18296;SDS011;18066;52.106;5.534;2022-12-07T07:13:10;12.53;;;1.63;;
18296;SDS011;18066;52.106;5.534;2022-12-07T07:15:37;5.37;;;0.90;;
18296;SDS011;18066;52.106;5.534;2022-12-07T07:18:04;8.60;;;1.37;;
18296;SDS011;18066;52.106;5.534;2022-12-07T07:20:31;2.57;;;1.50;;
18296;SDS011;18066;52.106;5.534;2022-12-07T07:22:58;6.27;;;1.57;;
18296;SDS011;18066;52.106;5.534;2022-12-07T07:25:26;4.97;;;1.10;;
18296;SDS011;18066;52.106;5.534;2022-12-07T07:27:52;6.63;;;1.90;;
18296;SDS011;18066;52.106;5.534;2022-12-07T07:30:19;8.40;;;1.50;;
18296;SDS011;18066;52.106;5.534;2022-12-07T07:32:46;3.20;;;1.10;;
18296;SDS011;18066;52.106;5.534;2022-12-07T07:35:13;6.43;;;1.80;;
18296;SDS011;18066;52.106;5.534;2022-12-07T07:37:40;7.40;;;1.20;;
18296;SDS011;18066;52.106;5.534;2022-12-07T07:40:08;10.97;;;1.47;;
18296;SDS011;18066;52.106;5.534;2022-12-07T07:42:37;6.47;;;1.20;;
18296;SDS011;18066;52.106;5.534;2022-12-07T07:45:04;7.03;;;1.40;;
18296;SDS011;18066;52.106;5.534;2022-12-07T07:47:31;8.87;;;1.60;;
18296;SDS011;18066;52.106;5.534;2022-12-07T07:49:58;7.57;;;1.33;;
18296;SDS011;18066;52.106;5.534;2022-12-07T07:52:25;4.20;;;1.37;;
18296;SDS011;18066;52.106;5.534;2022-12-07T07:54:52;4.87;;;1.93;;
18296;SDS011;18066;52.106;5.534;2022-12-07T07:57:19;6.93;;;1.57;;
18296;SDS011;18066;52.106;5.534;2022-12-07T07:59:47;5.40;;;1.60;;
18296;SDS011;18066;52.106;5.534;2022-12-07T08:02:15;4.73;;;1.43;;
18296;SDS011;18066;52.106;5.534;2022-12-07T08:04:43;5.07;;;1.80;;
18296;SDS011;18066;52.106;5.534;2022-12-07T08:07:11;6.10;;;1.70;;
18296;SDS011;18066;52.106;5.534;2022-12-07T08:09:38;9.87;;;2.07;;
18296;SDS011;18066;52.106;5.534;2022-12-07T08:12:05;14.97;;;1.63;;
18296;SDS011;18066;52.106;5.534;2022-12-07T08:14:32;3.70;;;1.20;;
18296;SDS011;18066;52.106;5.534;2022-12-07T08:17:01;5.67;;;1.13;;
18296;SDS011;18066;52.106;5.534;2022-12-07T08:19:28;6.23;;;1.73;;
18296;SDS011;18066;52.106;5.534;2022-12-07T08:21:54;3.43;;;1.50;;
18296;SDS011;18066;52.106;5.534;2022-12-07T08:24:21;8.83;;;1.50;;
18296;SDS011;18066;52.106;5.534;2022-12-07T08:26:50;2.93;;;1.30;;
18296;SDS011;18066;52.106;5.534;2022-12-07T08:29:16;3.33;;;1.20;;
18296;SDS011;18066;52.106;5.534;2022-12-07T08:31:45;6.40;;;1.80;;
18296;SDS011;18066;52.106;5.534;2022-12-07T08:34:13;10.43;;;2.03;;
18296;SDS011;18066;52.106;5.534;2022-12-07T08:36:40;10.10;;;1.83;;
18296;SDS011;18066;52.106;5.534;2022-12-07T08:39:07;5.97;;;1.67;;
18296;SDS011;18066;52.106;5.534;2022-12-07T08:41:34;8.50;;;1.90;;
18296;SDS011;18066;52.106;5.534;2022-12-07T08:44:01;5.47;;;1.57;;
18296;SDS011;18066;52.106;5.534;2022-12-07T08:46:28;8.97;;;1.63;;
18296;SDS011;18066;52.106;5.534;2022-12-07T08:49:02;7.70;;;2.03;;
18296;SDS011;18066;52.106;5.534;2022-12-07T08:51:33;5.20;;;1.37;;
18296;SDS011;18066;52.106;5.534;2022-12-07T08:54:00;11.20;;;1.67;;
18296;SDS011;18066;52.106;5.534;2022-12-07T08:56:30;7.60;;;1.40;;
18296;SDS011;18066;52.106;5.534;2022-12-07T08:58:57;4.53;;;1.27;;
18296;SDS011;18066;52.106;5.534;2022-12-07T09:01:24;5.53;;;1.60;;
18296;SDS011;18066;52.106;5.534;2022-12-07T09:03:52;9.43;;;1.83;;
18296;SDS011;18066;52.106;5.534;2022-12-07T09:06:18;7.33;;;1.40;;
18296;SDS011;18066;52.106;5.534;2022-12-07T09:08:47;7.80;;;1.50;;
18296;SDS011;18066;52.106;5.534;2022-12-07T09:11:18;5.33;;;1.53;;
18296;SDS011;18066;52.106;5.534;2022-12-07T09:13:45;6.27;;;1.60;;
18296;SDS011;18066;52.106;5.534;2022-12-07T09:16:12;5.97;;;1.60;;
18296;SDS011;18066;52.106;5.534;2022-12-07T09:18:39;5.67;;;1.37;;
18296;SDS011;18066;52.106;5.534;2022-12-07T09:21:06;7.83;;;1.97;;
18296;SDS011;18066;52.106;5.534;2022-12-07T09:23:34;3.53;;;1.30;;
18296;SDS011;18066;52.106;5.534;2022-12-07T09:26:03;10.00;;;1.20;;
18296;SDS011;18066;52.106;5.534;2022-12-07T09:28:30;8.67;;;1.90;;
18296;SDS011;18066;52.106;5.534;2022-12-07T09:30:57;8.50;;;1.40;;
18296;SDS011;18066;52.106;5.534;2022-12-07T09:33:24;7.57;;;1.50;;
18296;SDS011;18066;52.106;5.534;2022-12-07T09:35:51;7.33;;;1.53;;
18296;SDS011;18066;52.106;5.534;2022-12-07T09:38:19;2.17;;;0.93;;
18296;SDS011;18066;52.106;5.534;2022-12-07T09:40:45;4.73;;;1.20;;
18296;SDS011;18066;52.106;5.534;2022-12-07T09:43:16;4.20;;;1.20;;
18296;SDS011;18066;52.106;5.534;2022-12-07T09:45:45;10.33;;;1.53;;
18296;SDS011;18066;52.106;5.534;2022-12-07T09:48:15;4.87;;;1.00;;
18296;SDS011;18066;52.106;5.534;2022-12-07T09:50:45;3.33;;;1.20;;
18296;SDS011;18066;52.106;5.534;2022-12-07T09:53:14;3.57;;;1.70;;
18296;SDS011;18066;52.106;5.534;2022-12-07T09:55:44;6.47;;;2.30;;
18296;SDS011;18066;52.106;5.534;2022-12-07T09:58:12;8.20;;;1.40;;
18296;SDS011;18066;52.106;5.534;2022-12-07T10:00:46;8.20;;;1.50;;
18296;SDS011;18066;52.106;5.534;2022-12-07T10:03:13;7.80;;;1.80;;
18296;SDS011;18066;52.106;5.534;2022-12-07T10:05:41;6.73;;;1.40;;
18296;SDS011;18066;52.106;5.534;2022-12-07T10:08:10;5.87;;;1.77;;
18296;SDS011;18066;52.106;5.534;2022-12-07T10:10:39;9.93;;;1.77;;
18296;SDS011;18066;52.106;5.534;2022-12-07T10:13:08;6.40;;;1.90;;
18296;SDS011;18066;52.106;5.534;2022-12-07T10:15:45;6.63;;;1.30;;
18296;SDS011;18066;52.106;5.534;2022-12-07T10:18:16;3.07;;;1.90;;
18296;SDS011;18066;52.106;5.534;2022-12-07T10:20:59;3.40;;;1.30;;
18296;SDS011;18066;52.106;5.534;2022-12-07T10:23:32;5.20;;;1.20;;
18296;SDS011;18066;52.106;5.534;2022-12-07T10:26:01;8.17;;;1.87;;
18296;SDS011;18066;52.106;5.534;2022-12-07T10:28:46;4.83;;;1.43;;
18296;SDS011;18066;52.106;5.534;2022-12-07T10:31:16;4.67;;;1.53;;
18296;SDS011;18066;52.106;5.534;2022-12-07T10:33:49;4.10;;;1.23;;
18296;SDS011;18066;52.106;5.534;2022-12-07T10:36:19;3.23;;;0.90;;
18296;SDS011;18066;52.106;5.534;2022-12-07T10:38:48;2.53;;;1.00;;
18296;SDS011;18066;52.106;5.534;2022-12-07T10:41:16;5.17;;;1.30;;
18296;SDS011;18066;52.106;5.534;2022-12-07T10:43:47;3.90;;;1.13;;
18296;SDS011;18066;52.106;5.534;2022-12-07T10:46:24;4.57;;;0.80;;
18296;SDS011;18066;52.106;5.534;2022-12-07T10:52:34;9.23;;;3.20;;
18296;SDS011;18066;52.106;5.534;2022-12-07T10:55:13;12.40;;;2.13;;
18296;SDS011;18066;52.106;5.534;2022-12-07T10:57:47;5.83;;;1.10;;
18296;SDS011;18066;52.106;5.534;2022-12-07T11:00:28;5.97;;;1.40;;
18296;SDS011;18066;52.106;5.534;2022-12-07T11:03:07;4.27;;;1.00;;
18296;SDS011;18066;52.106;5.534;2022-12-07T11:05:59;2.80;;;0.93;;
18296;SDS011;18066;52.106;5.534;2022-12-07T11:08:39;5.43;;;0.80;;
18296;SDS011;18066;52.106;5.534;2022-12-07T11:11:22;5.37;;;0.87;;
18296;SDS011;18066;52.106;5.534;2022-12-07T11:14:00;7.00;;;1.03;;
18296;SDS011;18066;52.106;5.534;2022-12-07T11:16:37;9.43;;;1.33;;
18296;SDS011;18066;52.106;5.534;2022-12-07T11:19:19;12.40;;;1.20;;
18296;SDS011;18066;52.106;5.534;2022-12-07T11:22:03;8.10;;;1.53;;
18296;SDS011;18066;52.106;5.534;2022-12-07T11:24:39;4.67;;;0.90;;
18296;SDS011;18066;52.106;5.534;2022-12-07T11:27:15;3.33;;;0.80;;
18296;SDS011;18066;52.106;5.534;2022-12-07T11:29:55;2.43;;;0.97;;
18296;SDS011;18066;52.106;5.534;2022-12-07T11:32:45;4.37;;;1.07;;
18296;SDS011;18066;52.106;5.534;2022-12-07T11:35:33;4.80;;;0.90;;
18296;SDS011;18066;52.106;5.534;2022-12-07T11:38:07;5.97;;;1.40;;
18296;SDS011;18066;52.106;5.534;2022-12-07T11:40:37;3.90;;;1.20;;
18296;SDS011;18066;52.106;5.534;2022-12-07T11:43:07;5.73;;;1.40;;
18296;SDS011;18066;52.106;5.534;2022-12-07T11:45:41;5.43;;;1.50;;
18296;SDS011;18066;52.106;5.534;2022-12-07T11:48:11;6.03;;;1.10;;
18296;SDS011;18066;52.106;5.534;2022-12-07T11:50:45;11.53;;;1.73;;
18296;SDS011;18066;52.106;5.534;2022-12-07T11:53:16;9.13;;;3.43;;
18296;SDS011;18066;52.106;5.534;2022-12-07T11:55:48;13.67;;;2.50;;
18296;SDS011;18066;52.106;5.534;2022-12-07T11:58:20;7.30;;;1.90;;
18296;SDS011;18066;52.106;5.534;2022-12-07T12:01:01;6.00;;;1.63;;
18296;SDS011;18066;52.106;5.534;2022-12-07T12:03:40;4.93;;;1.50;;
18296;SDS011;18066;52.106;5.534;2022-12-07T12:06:12;6.37;;;1.10;;
18296;SDS011;18066;52.106;5.534;2022-12-07T12:08:40;5.37;;;1.30;;
18296;SDS011;18066;52.106;5.534;2022-12-07T12:11:15;5.10;;;1.13;;
18296;SDS011;18066;52.106;5.534;2022-12-07T12:14:07;4.30;;;1.20;;
18296;SDS011;18066;52.106;5.534;2022-12-07T12:16:56;5.87;;;0.87;;
18296;SDS011;18066;52.106;5.534;2022-12-07T12:19:42;7.23;;;0.93;;
18296;SDS011;18066;52.106;5.534;2022-12-07T12:22:23;7.80;;;0.90;;
18296;SDS011;18066;52.106;5.534;2022-12-07T12:24:59;6.73;;;1.23;;
18296;SDS011;18066;52.106;5.534;2022-12-07T12:27:30;5.83;;;1.33;;
18296;SDS011;18066;52.106;5.534;2022-12-07T12:30:00;7.97;;;1.47;;
18296;SDS011;18066;52.106;5.534;2022-12-07T12:32:32;8.87;;;1.20;;
18296;SDS011;18066;52.106;5.534;2022-12-07T12:35:22;3.13;;;0.90;;
18296;SDS011;18066;52.106;5.534;2022-12-07T12:38:01;4.63;;;1.00;;
18296;SDS011;18066;52.106;5.534;2022-12-07T12:40:52;5.37;;;1.10;;
18296;SDS011;18066;52.106;5.534;2022-12-07T12:46:36;3.50;;;0.80;;
18296;SDS011;18066;52.106;5.534;2022-12-07T12:55:17;5.10;;;1.07;;
18296;SDS011;18066;52.106;5.534;2022-12-07T13:00:49;6.93;;;1.10;;
18296;SDS011;18066;52.106;5.534;2022-12-07T13:03:54;9.33;;;1.30;;
18296;SDS011;18066;52.106;5.534;2022-12-07T13:06:31;3.87;;;0.70;;
18296;SDS011;18066;52.106;5.534;2022-12-07T13:09:03;1.90;;;0.60;;
18296;SDS011;18066;52.106;5.534;2022-12-07T13:11:33;3.27;;;0.83;;
18296;SDS011;18066;52.106;5.534;2022-12-07T13:17:07;4.73;;;0.70;;
18296;SDS011;18066;52.106;5.534;2022-12-07T13:22:38;7.50;;;0.70;;
18296;SDS011;18066;52.106;5.534;2022-12-07T13:25:29;1.90;;;0.67;;
18296;SDS011;18066;52.106;5.534;2022-12-07T13:28:03;5.20;;;0.70;;
18296;SDS011;18066;52.106;5.534;2022-12-07T13:30:40;2.07;;;0.50;;
18296;SDS011;18066;52.106;5.534;2022-12-07T13:33:13;4.57;;;0.73;;
18296;SDS011;18066;52.106;5.534;2022-12-07T13:35:43;0.40;;;0.10;;
18296;SDS011;18066;52.106;5.534;2022-12-07T13:38:17;0.60;;;0.40;;
18296;SDS011;18066;52.106;5.534;2022-12-07T13:40:59;0.97;;;0.30;;
18296;SDS011;18066;52.106;5.534;2022-12-07T13:43:41;3.83;;;0.50;;
18296;SDS011;18066;52.106;5.534;2022-12-07T13:46:09;1.37;;;0.30;;
18296;SDS011;18066;52.106;5.534;2022-12-07T13:48:43;1.23;;;0.60;;
18296;SDS011;18066;52.106;5.534;2022-12-07T13:51:16;2.10;;;0.30;;
18296;SDS011;18066;52.106;5.534;2022-12-07T13:53:48;2.93;;;0.57;;
18296;SDS011;18066;52.106;5.534;2022-12-07T13:56:16;3.10;;;0.40;;
18296;SDS011;18066;52.106;5.534;2022-12-07T13:58:44;1.07;;;0.40;;
18296;SDS011;18066;52.106;5.534;2022-12-07T14:01:11;2.03;;;0.50;;
18296;SDS011;18066;52.106;5.534;2022-12-07T14:03:38;1.93;;;0.50;;
18296;SDS011;18066;52.106;5.534;2022-12-07T14:06:16;0.47;;;0.30;;
18296;SDS011;18066;52.106;5.534;2022-12-07T14:09:05;5.30;;;0.60;;
18296;SDS011;18066;52.106;5.534;2022-12-07T14:11:33;1.23;;;0.60;;
18296;SDS011;18066;52.106;5.534;2022-12-07T14:14:02;1.90;;;0.50;;
18296;SDS011;18066;52.106;5.534;2022-12-07T14:16:31;1.23;;;0.73;;
18296;SDS011;18066;52.106;5.534;2022-12-07T14:19:00;1.97;;;0.63;;
18296;SDS011;18066;52.106;5.534;2022-12-07T14:21:30;2.60;;;0.80;;
18296;SDS011;18066;52.106;5.534;2022-12-07T14:24:02;1.73;;;0.80;;
18296;SDS011;18066;52.106;5.534;2022-12-07T14:26:37;2.43;;;0.73;;
18296;SDS011;18066;52.106;5.534;2022-12-07T14:31:57;1.73;;;0.60;;
18296;SDS011;18066;52.106;5.534;2022-12-07T14:34:26;3.57;;;0.73;;
18296;SDS011;18066;52.106;5.534;2022-12-07T14:36:53;2.33;;;0.60;;
18296;SDS011;18066;52.106;5.534;2022-12-07T14:39:20;6.30;;;1.00;;
18296;SDS011;18066;52.106;5.534;2022-12-07T14:41:47;1.90;;;0.67;;
18296;SDS011;18066;52.106;5.534;2022-12-07T14:44:16;2.47;;;0.83;;
18296;SDS011;18066;52.106;5.534;2022-12-07T14:46:45;3.00;;;1.10;;
18296;SDS011;18066;52.106;5.534;2022-12-07T14:49:12;4.43;;;1.00;;
18296;SDS011;18066;52.106;5.534;2022-12-07T14:51:39;5.50;;;0.97;;
18296;SDS011;18066;52.106;5.534;2022-12-07T14:54:11;3.17;;;0.77;;
18296;SDS011;18066;52.106;5.534;2022-12-07T14:56:42;2.93;;;0.70;;
18296;SDS011;18066;52.106;5.534;2022-12-07T14:59:10;3.97;;;0.83;;
18296;SDS011;18066;52.106;5.534;2022-12-07T15:01:37;1.03;;;0.60;;
18296;SDS011;18066;52.106;5.534;2022-12-07T15:04:06;2.47;;;0.90;;
18296;SDS011;18066;52.106;5.534;2022-12-07T15:06:33;1.33;;;0.80;;
18296;SDS011;18066;52.106;5.534;2022-12-07T15:09:00;3.70;;;1.00;;
18296;SDS011;18066;52.106;5.534;2022-12-07T15:11:27;4.30;;;1.57;;
18296;SDS011;18066;52.106;5.534;2022-12-07T15:13:54;4.07;;;1.33;;
18296;SDS011;18066;52.106;5.534;2022-12-07T15:16:36;5.90;;;1.10;;
18296;SDS011;18066;52.106;5.534;2022-12-07T15:19:07;1.83;;;0.83;;
18296;SDS011;18066;52.106;5.534;2022-12-07T15:21:38;5.00;;;1.00;;
18296;SDS011;18066;52.106;5.534;2022-12-07T15:24:06;2.97;;;1.10;;
18296;SDS011;18066;52.106;5.534;2022-12-07T15:26:34;1.73;;;0.80;;
18296;SDS011;18066;52.106;5.534;2022-12-07T15:29:01;10.87;;;4.50;;
18296;SDS011;18066;52.106;5.534;2022-12-07T15:31:28;7.20;;;2.70;;
18296;SDS011;18066;52.106;5.534;2022-12-07T15:33:56;4.77;;;0.63;;
18296;SDS011;18066;52.106;5.534;2022-12-07T15:36:25;2.90;;;0.70;;